createdAt,value
2018-05-04T00:00:00.200Z,94726.83
2018-05-04T00:02:26.745Z,94725.73
2018-05-04T00:04:53.341Z,94718.82
2018-05-04T00:07:19.822Z,94717.87
2018-05-04T00:09:46.299Z,94710.67
2018-05-04T00:12:12.840Z,94718.65
2018-05-04T00:14:39.352Z,94717.61
2018-05-04T00:17:05.952Z,94718.65
2018-05-04T00:19:32.480Z,94715.70
2018-05-04T00:21:58.953Z,94724.00
2018-05-04T00:24:25.465Z,94724.20
2018-05-04T00:26:52.005Z,94720.37
2018-05-04T00:29:18.489Z,94727.86
2018-05-04T00:31:45.016Z,94721.00
2018-05-04T00:34:11.458Z,94725.84
2018-05-04T00:36:37.920Z,94726.91
2018-05-04T00:39:04.505Z,94729.63
2018-05-04T00:41:31.113Z,94726.86
2018-05-04T00:43:57.516Z,94723.83
2018-05-04T00:46:24.033Z,94735.55
2018-05-04T00:48:50.649Z,94737.89
2018-05-04T00:51:17.140Z,94740.63
2018-05-04T00:53:55.796Z,94740.91
2018-05-04T00:56:22.417Z,94737.39
2018-05-04T00:58:49.037Z,94728.86
2018-05-04T01:01:15.537Z,94744.47
2018-05-04T01:03:42.041Z,94744.75
2018-05-04T01:06:08.548Z,94744.84
2018-05-04T01:08:34.967Z,94746.93
2018-05-04T01:11:01.606Z,94743.85
2018-05-04T01:13:27.992Z,94743.27
2018-05-04T01:15:54.474Z,94745.80
2018-05-04T01:18:20.927Z,94750.19
2018-05-04T01:20:47.443Z,94752.10
2018-05-04T01:23:13.936Z,94745.00
2018-05-04T01:25:40.472Z,94755.33
2018-05-04T01:28:07.053Z,94756.25
2018-05-04T01:30:33.485Z,94753.22
2018-05-04T01:32:59.936Z,94752.31
2018-05-04T01:35:26.389Z,94742.89
2018-05-04T01:37:53.050Z,94752.75
2018-05-04T01:40:19.560Z,94740.77
2018-05-04T01:42:46.044Z,94738.50
2018-05-04T01:45:12.559Z,94743.53
2018-05-04T01:47:39.132Z,94739.09
2018-05-04T01:50:05.701Z,94742.26
2018-05-04T01:52:32.173Z,94737.91
2018-05-04T01:54:58.816Z,94737.11
2018-05-04T01:57:25.221Z,94736.44
2018-05-04T01:59:51.608Z,94739.04
2018-05-04T02:02:18.224Z,94741.98
2018-05-04T02:04:44.743Z,94737.31
2018-05-04T02:07:11.251Z,94740.55
2018-05-04T02:09:37.788Z,94739.22
2018-05-04T02:12:04.347Z,94740.50
2018-05-04T02:14:30.852Z,94740.67
2018-05-04T02:16:57.362Z,94743.44
2018-05-04T02:19:23.848Z,94744.64
2018-05-04T02:21:50.336Z,94741.94
2018-05-04T02:24:16.791Z,94742.45
2018-05-04T02:26:43.335Z,94755.02
2018-05-04T02:29:09.909Z,94756.38
2018-05-04T02:31:36.261Z,94760.34
2018-05-04T02:34:02.783Z,94761.78
2018-05-04T02:36:29.359Z,94765.30
2018-05-04T02:38:55.875Z,94768.75
2018-05-04T02:41:22.332Z,94764.58
2018-05-04T02:43:48.765Z,94764.84
2018-05-04T02:46:15.293Z,94770.48
2018-05-04T02:48:41.838Z,94770.82
2018-05-04T02:51:08.364Z,94781.70
2018-05-04T02:53:34.874Z,94779.16
2018-05-04T02:56:01.441Z,94779.73
2018-05-04T02:58:27.889Z,94779.34
2018-05-04T03:00:54.356Z,94778.18
2018-05-04T03:03:20.947Z,94784.17
2018-05-04T03:05:47.398Z,94777.83
2018-05-04T03:08:13.875Z,94778.01
2018-05-04T03:10:40.455Z,94781.69
2018-05-04T03:13:07.004Z,94785.13
2018-05-04T03:15:33.453Z,94783.99
2018-05-04T03:17:59.997Z,94784.62
2018-05-04T03:20:26.595Z,94785.30
2018-05-04T03:22:53.064Z,94780.31
2018-05-04T03:25:19.585Z,94786.25
2018-05-04T03:27:46.226Z,94781.96
2018-05-04T03:30:12.733Z,94783.20
2018-05-04T03:32:39.328Z,94785.69
2018-05-04T03:35:05.757Z,94789.44
2018-05-04T03:37:32.220Z,94802.31
2018-05-04T03:39:58.789Z,94787.42
2018-05-04T03:42:25.213Z,94792.60
2018-05-04T03:44:51.680Z,94800.59
2018-05-04T03:47:19.045Z,94800.57
2018-05-04T03:49:45.554Z,94801.63
2018-05-04T03:52:12.137Z,94808.08
2018-05-04T03:54:38.646Z,94807.95
2018-05-04T03:57:17.209Z,94807.60
2018-05-04T03:59:55.914Z,94810.01
2018-05-04T04:02:34.540Z,94811.39
2018-05-04T04:05:00.780Z,94809.08
2018-05-04T04:07:27.316Z,94810.80
2018-05-04T04:09:53.797Z,94818.36
2018-05-04T04:12:20.458Z,94813.67
2018-05-04T04:14:47.101Z,94815.36
2018-05-04T04:17:13.564Z,94815.12
2018-05-04T04:19:39.947Z,94814.20
2018-05-04T04:22:06.391Z,94819.68
2018-05-04T04:24:32.876Z,94822.67
2018-05-04T04:26:59.394Z,94821.62
2018-05-04T04:29:25.858Z,94826.85
2018-05-04T04:31:52.363Z,94824.27
2018-05-04T04:34:19.009Z,94826.91
2018-05-04T04:36:45.476Z,94833.77
2018-05-04T04:39:12.013Z,94835.71
2018-05-04T04:41:38.524Z,94833.10
2018-05-04T04:44:05.009Z,94829.27
2018-05-04T04:46:31.512Z,94834.81
2018-05-04T04:48:58.025Z,94842.98
2018-05-04T04:51:24.518Z,94838.58
2018-05-04T04:53:51.042Z,94835.41
2018-05-04T04:56:17.540Z,94837.91
2018-05-04T04:58:44.021Z,94841.11
2018-05-04T05:01:10.592Z,94841.02
2018-05-04T05:03:37.070Z,94838.17
2018-05-04T05:06:04.164Z,94838.47
2018-05-04T05:08:30.890Z,94845.19
2018-05-04T05:10:57.884Z,94858.80
2018-05-04T05:13:24.892Z,94858.93
2018-05-04T05:15:52.509Z,94852.92
2018-05-04T05:18:19.184Z,94861.40
2018-05-04T05:20:45.632Z,94863.76
2018-05-04T05:23:12.143Z,94862.02
2018-05-04T05:25:38.592Z,94861.70
2018-05-04T05:28:05.085Z,94860.06
2018-05-04T05:30:31.745Z,94856.25
2018-05-04T05:32:58.234Z,94865.97
2018-05-04T05:35:24.786Z,94863.84
2018-05-04T05:37:51.465Z,94861.20
2018-05-04T05:40:17.929Z,94869.49
2018-05-04T05:42:44.438Z,94868.01
2018-05-04T05:45:10.819Z,94866.95
2018-05-04T05:47:37.408Z,94871.90
2018-05-04T05:50:04.022Z,94864.92
2018-05-04T05:52:30.597Z,94862.66
2018-05-04T05:54:57.084Z,94866.73
2018-05-04T05:57:23.628Z,94869.30
2018-05-04T05:59:50.218Z,94869.84
2018-05-04T06:02:16.662Z,94864.47
2018-05-04T06:04:43.143Z,94864.66
2018-05-04T06:07:09.610Z,94862.59
2018-05-04T06:09:36.133Z,94853.05
2018-05-04T06:12:02.753Z,94855.61
2018-05-04T06:14:29.244Z,94864.55
2018-05-04T06:16:55.608Z,94860.92
2018-05-04T06:19:22.048Z,94869.14
2018-05-04T06:21:48.564Z,94865.06
2018-05-04T06:24:15.076Z,94868.81
2018-05-04T06:26:41.561Z,94864.69
2018-05-04T06:29:08.031Z,94866.44
2018-05-04T06:31:34.602Z,94860.45
2018-05-04T06:34:01.111Z,94865.95
2018-05-04T06:36:27.520Z,94861.77
2018-05-04T06:38:54.050Z,94863.66
2018-05-04T06:41:20.569Z,94856.94
2018-05-04T06:43:47.103Z,94856.02
2018-05-04T06:46:13.699Z,94865.31
2018-05-04T06:48:40.192Z,94865.48
2018-05-04T06:51:06.903Z,94868.97
2018-05-04T06:53:33.564Z,94859.07
2018-05-04T06:56:00.086Z,94846.49
2018-05-04T06:58:27.068Z,94854.47
2018-05-04T07:00:53.592Z,94851.13
2018-05-04T07:03:20.126Z,94851.05
2018-05-04T07:05:46.579Z,94851.56
2018-05-04T07:08:13.138Z,94851.84
2018-05-04T07:10:39.699Z,94856.72
2018-05-04T07:13:06.200Z,94855.75
2018-05-04T07:15:32.730Z,94848.30
2018-05-04T07:17:59.265Z,94859.66
2018-05-04T07:20:25.746Z,94858.00
2018-05-04T07:22:52.246Z,94867.43
2018-05-04T07:25:18.608Z,94858.94
2018-05-04T07:27:45.117Z,94865.70
2018-05-04T07:30:11.564Z,94859.37
2018-05-04T07:32:37.978Z,94864.77
2018-05-04T07:35:04.366Z,94856.87
2018-05-04T07:37:30.906Z,94866.36
2018-05-04T07:39:57.496Z,94854.44
2018-05-04T07:42:24.028Z,94860.33
2018-05-04T07:44:50.548Z,94862.77
2018-05-04T07:47:17.140Z,94856.81
2018-05-04T07:49:43.736Z,94855.88
2018-05-04T07:52:10.209Z,94854.53
2018-05-04T07:54:36.655Z,94858.19
2018-05-04T07:57:03.060Z,94866.42
2018-05-04T07:59:29.501Z,94864.78
2018-05-04T08:01:55.904Z,94870.56
2018-05-04T08:04:22.277Z,94872.17
2018-05-04T08:06:48.698Z,94874.77
2018-05-04T08:09:15.066Z,94869.98
2018-05-04T08:11:41.447Z,94872.02
2018-05-04T08:14:07.852Z,94870.54
2018-05-04T08:16:34.276Z,94868.97
2018-05-04T08:19:00.613Z,94856.86
2018-05-04T08:21:27.017Z,94857.55
2018-05-04T08:23:53.377Z,94859.44
2018-05-04T08:26:19.836Z,94861.61
2018-05-04T08:35:08.148Z,94855.10
2018-05-04T08:37:34.615Z,94859.69
2018-05-04T08:40:01.031Z,94863.34
2018-05-04T08:42:27.479Z,94861.45
2018-05-04T08:44:53.962Z,94865.94
2018-05-04T08:47:20.561Z,94864.85
2018-05-04T08:49:47.069Z,94869.44
2018-05-04T08:52:13.592Z,94877.24
2018-05-04T09:00:12.235Z,94869.87
2018-05-04T09:02:38.703Z,94868.56
2018-05-04T09:05:05.260Z,94875.78
2018-05-04T09:07:31.669Z,94858.32
2018-05-04T09:09:58.126Z,94866.34
2018-05-04T09:12:24.729Z,94857.73
2018-05-04T09:14:51.221Z,94860.02
2018-05-04T09:17:17.616Z,94868.55
2018-05-04T09:19:44.295Z,94864.22
2018-05-04T09:22:10.856Z,94871.22
2018-05-04T09:24:37.484Z,94860.03
2018-05-04T09:27:03.897Z,94865.17
2018-05-04T09:29:30.263Z,94847.20
2018-05-04T09:31:56.661Z,94844.66
2018-05-04T09:34:23.145Z,94840.30
2018-05-04T09:36:49.568Z,94845.82
2018-05-04T09:39:16.038Z,94848.24
2018-05-04T09:41:42.618Z,94846.50
2018-05-04T09:44:09.124Z,94843.92
2018-05-04T09:46:35.588Z,94835.20
2018-05-04T09:49:02.040Z,94842.58
2018-05-04T09:51:28.548Z,94844.50
2018-05-04T09:53:55.094Z,94846.26
2018-05-04T09:56:21.521Z,94852.14
2018-05-04T09:58:48.020Z,94847.36
2018-05-04T10:01:14.585Z,94841.33
2018-05-04T10:03:40.949Z,94846.73
2018-05-04T10:06:07.411Z,94852.91
2018-05-04T10:08:33.912Z,94853.53
2018-05-04T10:11:00.471Z,94856.45
2018-05-04T10:13:26.929Z,94848.82
2018-05-04T10:15:53.384Z,94846.11
2018-05-04T10:18:19.728Z,94836.59
2018-05-04T10:20:46.112Z,94830.66
2018-05-04T10:23:12.531Z,94830.16
2018-05-04T10:25:38.948Z,94841.81
2018-05-04T10:28:05.400Z,94842.09
2018-05-04T10:30:31.901Z,94830.61
2018-05-04T10:32:58.356Z,94825.08
2018-05-04T10:35:24.832Z,94828.30
2018-05-04T10:37:51.302Z,94838.08
2018-05-04T10:40:17.737Z,94848.23
2018-05-04T10:42:44.213Z,94831.77
2018-05-04T10:45:10.642Z,94830.60
2018-05-04T10:47:37.043Z,94828.86
2018-05-04T10:50:03.581Z,94827.67
2018-05-04T10:52:30.016Z,94829.86
2018-05-04T10:54:56.497Z,94833.81
2018-05-04T10:57:23.284Z,94830.16
2018-05-04T10:59:49.800Z,94826.94
2018-05-04T11:02:16.279Z,94832.41
2018-05-04T11:04:42.836Z,94826.74
2018-05-04T11:07:09.368Z,94828.17
2018-05-04T11:09:35.933Z,94825.68
2018-05-04T11:12:02.421Z,94824.94
2018-05-04T11:14:28.927Z,94827.20
2018-05-04T11:16:55.457Z,94820.42
2018-05-04T11:19:22.035Z,94819.94
2018-05-04T11:21:48.508Z,94818.81
2018-05-04T11:24:15.049Z,94826.84
2018-05-04T11:29:12.799Z,94814.88
2018-05-04T11:31:39.312Z,94819.73
2018-05-04T11:34:05.808Z,94813.26
2018-05-04T11:36:32.292Z,94814.14
2018-05-04T11:38:58.849Z,94816.75
2018-05-04T11:41:25.321Z,94806.48
2018-05-04T11:43:51.877Z,94800.88
2018-05-04T11:46:18.316Z,94799.66
2018-05-04T11:48:44.748Z,94802.98
2018-05-04T11:51:11.340Z,94797.63
2018-05-04T11:53:38.424Z,94799.76
2018-05-04T11:56:04.912Z,94800.47
2018-05-04T11:58:31.878Z,94802.66
2018-05-04T12:00:58.340Z,94791.77
2018-05-04T12:03:24.811Z,94795.52
2018-05-04T12:05:51.406Z,94798.19
2018-05-04T12:08:18.032Z,94812.48
2018-05-04T12:10:44.540Z,94801.00
2018-05-04T12:13:11.128Z,94803.94
2018-05-04T12:15:37.774Z,94805.48
2018-05-04T12:18:04.362Z,94793.67
2018-05-04T12:20:30.900Z,94789.97
2018-05-04T12:22:57.677Z,94787.08
2018-05-04T12:25:24.320Z,94781.91
2018-05-04T12:27:50.709Z,94788.99
2018-05-04T12:30:17.220Z,94776.05
2018-05-04T12:32:43.704Z,94772.70
2018-05-04T12:35:10.116Z,94774.56
2018-05-04T12:37:36.565Z,94774.33
2018-05-04T12:40:03.096Z,94765.78
2018-05-04T12:42:29.512Z,94767.76
2018-05-04T12:44:56.060Z,94772.42
2018-05-04T12:47:22.564Z,94763.48
2018-05-04T12:49:49.117Z,94763.00
2018-05-04T12:52:15.565Z,94759.69
2018-05-04T12:54:42.216Z,94757.02
2018-05-04T12:57:08.646Z,94758.48
2018-05-04T12:59:35.336Z,94755.02
2018-05-04T13:02:01.827Z,94750.01
2018-05-04T13:04:28.341Z,94753.02
2018-05-04T13:06:55.241Z,94755.13
2018-05-04T13:09:21.984Z,94749.98
2018-05-04T13:11:48.375Z,94753.20
2018-05-04T13:14:14.841Z,94752.72
2018-05-04T13:16:41.309Z,94753.73
2018-05-04T13:19:07.881Z,94754.41
2018-05-04T13:21:34.406Z,94755.55
2018-05-04T13:24:01.022Z,94760.09
2018-05-04T13:26:27.590Z,94756.84
2018-05-04T13:28:54.157Z,94751.93
2018-05-04T13:31:20.601Z,94755.92
2018-05-04T13:33:47.071Z,94753.48
2018-05-04T13:36:13.619Z,94755.92
2018-05-04T13:38:40.037Z,94754.45
2018-05-04T13:41:06.542Z,94768.55
2018-05-04T13:43:33.197Z,94763.34
2018-05-04T13:45:59.689Z,94760.34
2018-05-04T13:48:26.252Z,94767.05
2018-05-04T13:50:52.808Z,94761.48
2018-05-04T13:53:19.231Z,94761.28
2018-05-04T13:55:50.644Z,94761.34
2018-05-04T13:58:17.154Z,94764.48
2018-05-04T14:00:47.419Z,94777.26
2018-05-04T14:03:14.059Z,94766.50
2018-05-04T14:05:40.564Z,94776.05
2018-05-04T14:08:07.019Z,94778.64
2018-05-04T14:10:33.481Z,94790.26
2018-05-04T14:13:00.054Z,94784.57
2018-05-04T14:15:26.484Z,94794.20
2018-05-04T14:17:53.044Z,94792.80
2018-05-04T14:20:19.594Z,94796.87
2018-05-04T14:22:46.045Z,94808.41
2018-05-04T14:25:12.580Z,94814.34
2018-05-04T14:27:39.184Z,94817.87
2018-05-04T14:30:05.798Z,94823.48
2018-05-04T14:32:32.309Z,94825.20
2018-05-04T14:34:58.893Z,94828.67
2018-05-04T14:37:26.170Z,94831.09
2018-05-04T14:39:52.685Z,94830.75
2018-05-04T14:42:19.192Z,94838.88
2018-05-04T14:44:45.715Z,94843.92
2018-05-04T14:47:12.313Z,94842.23
2018-05-04T14:49:38.796Z,94833.55
2018-05-04T14:52:05.353Z,94836.30
2018-05-04T14:54:31.782Z,94840.23
2018-05-04T14:56:58.241Z,94845.34
2018-05-04T14:59:24.871Z,94837.27
2018-05-04T15:01:51.539Z,94842.25
2018-05-04T15:04:18.237Z,94840.98
2018-05-04T15:06:44.720Z,94840.70
2018-05-04T15:09:11.254Z,94837.13
2018-05-04T15:11:37.845Z,94841.87
2018-05-04T15:14:04.394Z,94854.70
2018-05-04T15:16:30.924Z,94841.77
2018-05-04T15:18:57.420Z,94849.39
2018-05-04T15:21:23.932Z,94844.88
2018-05-04T15:23:50.372Z,94820.41
2018-05-04T15:26:16.959Z,94839.70
2018-05-04T15:28:43.421Z,94827.69
2018-05-04T15:31:09.910Z,94831.78
2018-05-04T15:33:36.420Z,94829.14
2018-05-04T15:36:02.932Z,94821.16
2018-05-04T15:38:29.518Z,94817.16
2018-05-04T15:40:56.277Z,94810.36
2018-05-04T15:43:22.783Z,94814.42
2018-05-04T15:45:49.240Z,94812.51
2018-05-04T15:48:21.944Z,94802.80
2018-05-04T15:50:54.657Z,94801.33
2018-05-04T15:53:21.212Z,94788.15
2018-05-04T15:55:47.702Z,94785.89
2018-05-04T15:58:14.345Z,94782.31
2018-05-04T16:00:40.980Z,94792.63
2018-05-04T16:03:07.645Z,94789.70
2018-05-04T16:05:34.196Z,94803.16
2018-05-04T16:08:00.789Z,94799.23
2018-05-04T16:10:27.455Z,94790.69
2018-05-04T16:12:54.027Z,94794.81
2018-05-04T16:15:20.508Z,94801.09
2018-05-04T16:17:47.202Z,94804.54
2018-05-04T16:20:13.711Z,94807.73
2018-05-04T16:22:40.328Z,94803.95
2018-05-04T16:25:06.904Z,94817.84
2018-05-04T16:27:33.669Z,94824.78
2018-05-04T16:30:00.372Z,94833.16
2018-05-04T16:32:26.833Z,94827.59
2018-05-04T16:34:53.304Z,94827.79
2018-05-04T16:37:19.757Z,94836.84
2018-05-04T16:39:46.277Z,94844.14
2018-05-04T16:42:12.798Z,94830.12
2018-05-04T16:44:39.168Z,94839.36
2018-05-04T16:47:11.708Z,94825.05
2018-05-04T16:49:38.245Z,94831.00
2018-05-04T16:52:04.699Z,94837.52
2018-05-04T16:54:31.205Z,94847.63
2018-05-04T16:56:57.719Z,94849.15
2018-05-04T16:59:24.353Z,94842.94
2018-05-04T17:01:51.287Z,94854.02
2018-05-04T17:04:17.801Z,94860.92
2018-05-04T17:06:44.242Z,94863.02
2018-05-04T17:09:11.198Z,94855.50
2018-05-04T17:11:37.689Z,94854.88
2018-05-04T17:14:04.265Z,94862.78
2018-05-04T17:16:31.052Z,94868.11
2018-05-04T17:18:57.506Z,94864.08
2018-05-04T17:21:24.077Z,94874.21
2018-05-04T17:23:50.744Z,94870.84
2018-05-04T17:26:17.332Z,94873.59
2018-05-04T17:28:43.739Z,94871.02
2018-05-04T17:31:10.304Z,94873.19
2018-05-04T17:33:36.836Z,94875.17
2018-05-04T17:36:03.317Z,94878.92
2018-05-04T17:38:30.017Z,94871.73
2018-05-04T17:40:56.444Z,94868.02
2018-05-04T17:43:23.017Z,94862.81
2018-05-04T17:45:49.577Z,94858.75
2018-05-04T17:48:16.167Z,94864.78
2018-05-04T17:50:43.450Z,94866.73
2018-05-04T17:53:09.859Z,94866.73
2018-05-04T17:55:36.525Z,94866.40
2018-05-04T17:58:03.025Z,94862.65
2018-05-04T18:00:29.512Z,94857.61
2018-05-04T18:02:56.644Z,94855.06
2018-05-04T18:05:23.210Z,94862.89
2018-05-04T18:07:49.771Z,94857.61
2018-05-04T18:10:16.363Z,94876.55
2018-05-04T18:12:43.026Z,94876.34
2018-05-04T18:15:09.515Z,94877.20
2018-05-04T18:17:36.008Z,94877.00
2018-05-04T18:20:02.767Z,94879.84
2018-05-04T18:22:29.404Z,94889.91
2018-05-04T18:24:55.965Z,94887.93
2018-05-04T18:27:22.410Z,94898.36
2018-05-04T18:29:48.955Z,94899.35
2018-05-04T18:32:15.367Z,94903.66
2018-05-04T18:34:41.779Z,94907.65
2018-05-04T18:37:08.344Z,94906.17
2018-05-04T18:39:34.920Z,94906.51
2018-05-04T18:42:01.646Z,94911.78
2018-05-04T18:44:28.060Z,94911.50
2018-05-04T18:46:54.527Z,94923.89
2018-05-04T18:49:21.161Z,94926.55
2018-05-04T18:51:47.828Z,94932.37
2018-05-04T18:54:14.268Z,94936.50
2018-05-04T18:56:40.723Z,94934.86
2018-05-04T18:59:07.208Z,94938.41
2018-05-04T19:01:33.723Z,94938.85
2018-05-04T19:04:00.187Z,94936.44
2018-05-04T19:06:26.837Z,94934.23
2018-05-04T19:08:53.485Z,94934.39
2018-05-04T19:11:20.036Z,94939.47
2018-05-04T19:13:46.621Z,94948.08
2018-05-04T19:16:13.009Z,94947.58
2018-05-04T19:18:39.617Z,94946.65
2018-05-04T19:21:06.253Z,94947.78
2018-05-04T19:23:32.727Z,94952.03
2018-05-04T19:25:59.173Z,94952.16
2018-05-04T19:28:25.725Z,94948.58
2018-05-04T19:30:52.149Z,94945.34
2018-05-04T19:33:18.633Z,94947.48
2018-05-04T19:35:45.231Z,94941.70
2018-05-04T19:38:11.792Z,94941.91
2018-05-04T19:40:38.221Z,94937.42
2018-05-04T19:43:04.664Z,94939.69
2018-05-04T19:45:31.173Z,94944.77
2018-05-04T19:47:57.622Z,94943.67
2018-05-04T19:50:24.194Z,94939.79
2018-05-04T19:52:50.676Z,94936.25
2018-05-04T19:55:17.169Z,94934.50
2018-05-04T19:57:43.711Z,94936.80
2018-05-04T20:00:10.161Z,94938.28
2018-05-04T20:02:36.656Z,94937.88
2018-05-04T20:05:03.208Z,94934.78
2018-05-04T20:07:29.749Z,94932.72
2018-05-04T20:09:56.244Z,94930.73
2018-05-04T20:12:22.768Z,94929.95
2018-05-04T20:14:49.265Z,94938.11
2018-05-04T20:17:15.853Z,94929.33
2018-05-04T20:19:42.232Z,94938.81
2018-05-04T20:22:08.804Z,94934.82
2018-05-04T20:24:35.293Z,94940.39
2018-05-04T20:27:01.820Z,94932.29
2018-05-04T20:29:28.329Z,94934.31
2018-05-04T20:31:54.790Z,94932.66
2018-05-04T20:34:22.345Z,94932.42
2018-05-04T20:36:48.929Z,94930.97
2018-05-04T20:39:15.393Z,94932.98
2018-05-04T20:41:41.853Z,94934.84
2018-05-04T20:44:08.376Z,94934.28
2018-05-04T20:46:34.921Z,94932.23
2018-05-04T20:49:01.389Z,94936.42
2018-05-04T20:51:27.860Z,94935.09
2018-05-04T20:53:54.372Z,94934.97
2018-05-04T20:56:20.824Z,94925.42
2018-05-04T20:58:47.477Z,94923.81
2018-05-04T21:01:13.940Z,94926.47
2018-05-04T21:03:40.451Z,94929.17
2018-05-04T21:06:07.023Z,94929.53
2018-05-04T21:08:33.538Z,94928.04
2018-05-04T21:11:00.176Z,94934.09
2018-05-04T21:13:26.664Z,94934.60
2018-05-04T21:15:53.152Z,94934.08
2018-05-04T21:18:19.657Z,94944.38
2018-05-04T21:20:46.217Z,94941.63
2018-05-04T21:23:12.733Z,94954.89
2018-05-04T21:25:39.329Z,94945.58
2018-05-04T21:28:05.878Z,94959.78
2018-05-04T21:30:32.349Z,94955.46
2018-05-04T21:32:58.832Z,94961.61
2018-05-04T21:35:25.233Z,94963.76
2018-05-04T21:37:51.783Z,94961.83
2018-05-04T21:40:18.242Z,94959.00
2018-05-04T21:42:44.773Z,94960.39
2018-05-04T21:45:11.520Z,94966.85
2018-05-04T21:47:37.960Z,94959.80
2018-05-04T21:50:04.460Z,94969.52
2018-05-04T21:52:30.914Z,94961.43
2018-05-04T21:54:57.425Z,94966.56
2018-05-04T21:57:23.933Z,94964.86
2018-05-04T21:59:50.504Z,94965.44
2018-05-04T22:02:17.152Z,94965.29
2018-05-04T22:04:43.623Z,94963.03
2018-05-04T22:07:10.134Z,94963.39
2018-05-04T22:09:36.778Z,94965.18
2018-05-04T22:12:03.180Z,94963.66
2018-05-04T22:14:29.685Z,94965.50
2018-05-04T22:16:56.185Z,94965.25
2018-05-04T22:19:22.693Z,94975.61
2018-05-04T22:21:49.220Z,94974.00
2018-05-04T22:24:15.762Z,94968.73
2018-05-04T22:26:42.334Z,94970.46
2018-05-04T22:29:08.812Z,94964.92
2018-05-04T22:31:35.256Z,94969.25
2018-05-04T22:34:01.841Z,94968.64
2018-05-04T22:36:28.361Z,94965.73
2018-05-04T22:38:54.868Z,94965.95
2018-05-04T22:41:21.300Z,94966.91
2018-05-04T22:43:47.739Z,94966.22
2018-05-04T22:46:14.285Z,94964.37
2018-05-04T22:48:40.854Z,94967.92
2018-05-04T22:51:07.414Z,94961.72
2018-05-04T22:53:34.132Z,94967.72
2018-05-04T22:56:00.600Z,94970.16
2018-05-04T22:58:27.071Z,94971.14
2018-05-04T23:00:53.616Z,94969.64
2018-05-04T23:03:20.054Z,94967.88
2018-05-04T23:05:46.667Z,94972.49
2018-05-04T23:08:13.108Z,94968.11
2018-05-04T23:10:39.872Z,94980.92
2018-05-04T23:13:06.354Z,94978.11
2018-05-04T23:15:32.865Z,94967.92
2018-05-04T23:17:59.340Z,94972.55
2018-05-04T23:20:25.887Z,94962.87
2018-05-04T23:22:52.305Z,94970.04
2018-05-04T23:25:18.821Z,94961.70
2018-05-04T23:27:45.323Z,94960.53
2018-05-04T23:30:11.737Z,94957.06
2018-05-04T23:32:38.309Z,94959.16
2018-05-04T23:35:04.788Z,94962.45
2018-05-04T23:37:31.409Z,94956.97
2018-05-04T23:39:57.904Z,94961.59
2018-05-04T23:42:24.457Z,94963.47
2018-05-04T23:44:51.117Z,94963.92
2018-05-04T23:47:17.700Z,94963.53
2018-05-04T23:49:44.142Z,94958.97
2018-05-04T23:52:10.602Z,94965.59
2018-05-04T23:54:37.156Z,94964.56
2018-05-04T23:57:03.617Z,94960.88
2018-05-04T23:59:30.177Z,94963.28
